createdAt,value
2022-09-09T00:00:58.565Z,15.22
2022-09-09T00:04:17.417Z,15.23
2022-09-09T00:07:47.349Z,15.11
2022-09-09T00:11:05.855Z,15.02
2022-09-09T00:14:28.528Z,14.95
2022-09-09T00:17:46.954Z,14.83
2022-09-09T00:21:04.128Z,14.79
2022-09-09T00:24:32.251Z,14.76
2022-09-09T00:27:48.648Z,14.78
2022-09-09T00:30:54.433Z,14.77
2022-09-09T00:34:16.188Z,14.48
2022-09-09T00:37:26.497Z,14.58
2022-09-09T00:40:39.122Z,14.60
2022-09-09T00:43:47.481Z,14.67
2022-09-09T00:47:13.340Z,14.69
2022-09-09T00:50:42.065Z,14.66
2022-09-09T00:54:35.162Z,14.46
2022-09-09T00:57:43.848Z,14.50
2022-09-09T01:00:57.358Z,14.48
2022-09-09T01:04:02.906Z,14.29
2022-09-09T01:07:21.991Z,14.23
2022-09-09T01:10:47.550Z,14.15
2022-09-09T01:14:08.071Z,14.10
2022-09-09T01:17:27.218Z,14.06
2022-09-09T01:20:56.748Z,14.08
2022-09-09T01:24:26.731Z,14.02
2022-09-09T01:28:04.745Z,14.07
2022-09-09T01:31:19.282Z,14.19
2022-09-09T01:34:29.968Z,14.30
2022-09-09T01:37:36.009Z,14.39
2022-09-09T01:40:42.916Z,14.25
2022-09-09T01:43:53.108Z,14.22
2022-09-09T01:46:58.783Z,14.24
2022-09-09T01:50:07.011Z,14.27
2022-09-09T01:53:13.136Z,14.29
2022-09-09T01:56:44.717Z,14.36
2022-09-09T02:00:14.888Z,14.27
2022-09-09T02:03:31.857Z,14.21
2022-09-09T02:06:54.514Z,14.04
2022-09-09T02:10:20.346Z,14.05
2022-09-09T02:13:43.102Z,13.90
2022-09-09T02:17:08.667Z,13.94
2022-09-09T02:20:35.247Z,13.81
2022-09-09T02:23:47.972Z,13.79
2022-09-09T02:27:14.052Z,13.87
2022-09-09T02:30:21.955Z,13.83
2022-09-09T02:33:48.922Z,13.87
2022-09-09T02:37:07.923Z,13.89
2022-09-09T02:40:18.435Z,13.87
2022-09-09T02:43:36.430Z,13.90
2022-09-09T02:47:22.223Z,13.92
2022-09-09T02:50:39.497Z,13.91
2022-09-09T02:54:01.497Z,13.83
2022-09-09T02:57:17.274Z,13.63
2022-09-09T03:00:29.884Z,13.62
2022-09-09T03:03:42.797Z,13.58
2022-09-09T03:06:57.988Z,13.48
2022-09-09T03:10:13.501Z,13.33
2022-09-09T03:13:20.473Z,13.22
2022-09-09T03:16:26.253Z,13.18
2022-09-09T03:19:34.101Z,13.10
2022-09-09T03:22:42.440Z,13.09
2022-09-09T03:25:53.174Z,13.01
2022-09-09T03:29:07.660Z,13.10
2022-09-09T03:32:14.109Z,13.07
2022-09-09T03:35:20.615Z,13.18
2022-09-09T03:38:30.457Z,13.24
2022-09-09T03:41:36.215Z,13.31
2022-09-09T03:44:49.187Z,13.35
2022-09-09T03:47:59.708Z,13.33
2022-09-09T03:51:05.633Z,13.26
2022-09-09T03:54:15.668Z,13.24
2022-09-09T03:57:21.765Z,13.26
2022-09-09T04:00:28.070Z,13.30
2022-09-09T04:03:38.477Z,13.32
2022-09-09T04:06:44.259Z,13.33
2022-09-09T04:09:52.564Z,13.07
2022-09-09T04:13:04.867Z,12.96
2022-09-09T04:16:14.752Z,12.93
2022-09-09T04:19:24.665Z,12.80
2022-09-09T04:22:33.216Z,12.79
2022-09-09T04:25:43.105Z,12.76
2022-09-09T04:28:48.827Z,12.87
2022-09-09T04:31:57.763Z,12.85
2022-09-09T04:35:04.213Z,12.96
2022-09-09T04:38:11.054Z,12.96
2022-09-09T04:41:20.427Z,12.85
2022-09-09T04:44:29.339Z,12.70
2022-09-09T04:47:35.690Z,12.80
2022-09-09T04:50:41.819Z,12.99
2022-09-09T04:53:51.975Z,13.09
2022-09-09T04:57:01.205Z,12.87
2022-09-09T05:00:09.258Z,12.80
2022-09-09T05:03:17.857Z,13.06
2022-09-09T05:06:26.689Z,13.39
2022-09-09T05:09:36.885Z,13.54
2022-09-09T05:12:46.502Z,13.66
2022-09-09T05:15:56.780Z,13.79
2022-09-09T05:19:04.421Z,14.24
2022-09-09T05:22:24.942Z,14.44
2022-09-09T05:25:32.516Z,14.36
2022-09-09T05:28:41.155Z,14.30
2022-09-09T05:31:46.716Z,14.26
2022-09-09T05:34:55.314Z,14.46
2022-09-09T05:38:04.385Z,14.29
2022-09-09T05:41:11.516Z,14.21
2022-09-09T05:44:20.528Z,14.50
2022-09-09T05:47:28.828Z,14.44
2022-09-09T05:50:35.365Z,14.60
2022-09-09T05:53:41.078Z,15.78
2022-09-09T05:56:51.481Z,16.82
2022-09-09T06:00:00.753Z,17.81
2022-09-09T06:03:06.676Z,18.49
2022-09-09T06:06:16.393Z,19.29
2022-09-09T06:09:22.263Z,19.46
2022-09-09T06:12:29.935Z,19.77
2022-09-09T06:15:38.376Z,20.11
2022-09-09T06:18:46.086Z,20.77
2022-09-09T06:21:52.048Z,21.39
2022-09-09T06:24:57.843Z,21.83
2022-09-09T06:28:03.553Z,22.38
2022-09-09T06:31:15.909Z,23.14
2022-09-09T06:34:21.971Z,23.37
2022-09-09T06:37:32.363Z,23.21
2022-09-09T06:40:38.263Z,23.34
2022-09-09T06:43:44.825Z,22.96
2022-09-09T06:46:54.204Z,22.91
2022-09-09T06:49:59.893Z,23.25
2022-09-09T06:53:05.857Z,23.39
2022-09-09T06:56:25.589Z,23.38
2022-09-09T06:59:33.253Z,23.93
2022-09-09T07:02:42.307Z,24.23
2022-09-09T07:05:59.235Z,24.03
2022-09-09T07:09:10.149Z,24.61
2022-09-09T07:12:18.541Z,24.72
2022-09-09T07:15:35.607Z,24.29
2022-09-09T07:18:47.900Z,24.70
2022-09-09T07:21:53.610Z,24.74
2022-09-09T07:25:03.425Z,25.42
2022-09-09T07:28:09.823Z,25.06
2022-09-09T07:31:21.730Z,24.76
2022-09-09T07:34:31.143Z,24.63
2022-09-09T07:37:42.336Z,25.15
2022-09-09T07:40:48.057Z,25.26
2022-09-09T07:43:55.855Z,25.27
2022-09-09T07:47:09.183Z,25.28
2022-09-09T07:50:21.937Z,24.81
2022-09-09T07:53:27.632Z,25.85
2022-09-09T07:56:35.326Z,26.62
2022-09-09T07:59:41.929Z,25.92
2022-09-09T08:02:48.039Z,25.75
2022-09-09T08:05:56.973Z,26.57
2022-09-09T08:09:03.833Z,27.06
2022-09-09T08:12:15.608Z,26.58
2022-09-09T08:15:21.303Z,25.46
2022-09-09T08:18:27.105Z,24.68
2022-09-09T08:21:37.925Z,25.09
2022-09-09T08:24:43.686Z,24.78
2022-09-09T08:27:49.732Z,24.01
2022-09-09T08:30:55.786Z,24.87
2022-09-09T08:34:05.755Z,25.41
2022-09-09T08:37:14.827Z,25.47
2022-09-09T08:40:35.786Z,25.51
2022-09-09T08:43:43.303Z,25.94
2022-09-09T08:47:05.698Z,25.97
2022-09-09T08:50:30.491Z,25.02
2022-09-09T08:53:55.359Z,25.37
2022-09-09T08:57:23.714Z,25.38
2022-09-09T09:00:46.401Z,25.96
2022-09-09T09:04:14.272Z,25.59
2022-09-09T09:07:44.706Z,24.29
2022-09-09T09:10:58.253Z,24.33
2022-09-09T09:14:15.690Z,24.25
2022-09-09T09:17:26.219Z,22.87
2022-09-09T09:20:52.388Z,23.10
2022-09-09T09:24:03.250Z,23.58
2022-09-09T09:27:19.473Z,23.60
2022-09-09T09:30:38.760Z,23.86
2022-09-09T09:33:54.341Z,25.21
2022-09-09T09:37:11.369Z,25.14
2022-09-09T09:40:21.359Z,24.63
2022-09-09T09:43:34.563Z,25.18
2022-09-09T09:46:43.647Z,24.69
2022-09-09T09:50:00.645Z,24.41
2022-09-09T09:53:25.172Z,24.50
2022-09-09T09:56:33.777Z,24.34
2022-09-09T09:59:46.580Z,24.43
2022-09-09T10:03:00.693Z,24.34
2022-09-09T10:06:10.771Z,23.93
2022-09-09T10:09:30.153Z,23.90
2022-09-09T10:13:07.196Z,23.57
2022-09-09T10:16:45.540Z,24.46
2022-09-09T10:20:25.269Z,25.23
2022-09-09T10:24:03.574Z,25.58
2022-09-09T10:27:24.038Z,25.57
2022-09-09T10:30:52.026Z,25.27
2022-09-09T10:34:23.321Z,24.97
2022-09-09T10:37:53.911Z,24.59
2022-09-09T10:41:22.298Z,25.94
2022-09-09T10:44:54.457Z,26.54
2022-09-09T10:48:31.908Z,26.70
2022-09-09T10:52:09.263Z,27.26
2022-09-09T10:55:24.631Z,27.02
2022-09-09T10:58:47.452Z,27.12
2022-09-09T11:02:04.072Z,27.07
2022-09-09T11:05:23.050Z,26.90
2022-09-09T11:08:37.516Z,26.26
2022-09-09T11:11:55.578Z,26.23
2022-09-09T11:15:11.308Z,26.88
2022-09-09T11:18:24.610Z,27.74
2022-09-09T11:21:38.260Z,26.69
2022-09-09T11:24:55.839Z,25.88
2022-09-09T11:28:25.299Z,25.93
2022-09-09T11:31:50.359Z,26.28
2022-09-09T11:35:23.817Z,26.20
2022-09-09T11:38:33.203Z,26.49
2022-09-09T11:41:42.826Z,27.13
2022-09-09T11:44:49.962Z,27.07
2022-09-09T11:48:01.494Z,26.85
2022-09-09T11:51:17.303Z,26.86
2022-09-09T11:54:40.926Z,27.22
2022-09-09T11:57:49.753Z,27.42
2022-09-09T12:00:55.440Z,27.45
2022-09-09T12:04:37.909Z,27.15
2022-09-09T12:07:56.626Z,26.68
2022-09-09T12:11:04.328Z,26.84
2022-09-09T12:14:26.250Z,27.00
2022-09-09T12:17:36.360Z,26.62
2022-09-09T12:20:45.206Z,26.11
2022-09-09T12:24:02.675Z,26.33
2022-09-09T12:27:22.195Z,26.21
2022-09-09T12:30:41.713Z,26.51
2022-09-09T12:33:49.716Z,26.55
2022-09-09T12:37:08.241Z,26.14
2022-09-09T12:40:26.717Z,26.28
2022-09-09T12:43:33.433Z,26.14
2022-09-09T12:46:49.779Z,25.83
2022-09-09T12:49:57.565Z,25.81
2022-09-09T12:53:19.172Z,25.68
2022-09-09T12:56:31.414Z,25.62
2022-09-09T12:59:43.788Z,25.81
2022-09-09T13:03:00.224Z,25.26
2022-09-09T13:06:28.573Z,25.31
2022-09-09T13:09:36.501Z,24.91
2022-09-09T13:12:43.694Z,24.33
2022-09-09T13:15:57.754Z,23.94
2022-09-09T13:19:13.424Z,23.19
2022-09-09T13:22:31.383Z,23.48
2022-09-09T13:25:40.649Z,23.62
2022-09-09T13:28:50.775Z,23.69
2022-09-09T13:31:58.373Z,23.51
2022-09-09T13:35:07.783Z,23.57
2022-09-09T13:38:13.814Z,23.61
2022-09-09T13:41:26.786Z,23.51
2022-09-09T13:44:42.900Z,23.64
2022-09-09T13:47:48.934Z,23.73
2022-09-09T13:51:11.591Z,23.63
2022-09-09T13:54:25.590Z,23.69
2022-09-09T13:57:31.152Z,23.47
2022-09-09T14:00:49.744Z,23.00
2022-09-09T14:03:55.283Z,22.84
2022-09-09T14:07:03.456Z,22.73
2022-09-09T14:10:12.088Z,22.74
2022-09-09T14:13:23.148Z,22.84
2022-09-09T14:16:29.133Z,22.70
2022-09-09T14:19:35.902Z,22.64
2022-09-09T14:22:45.304Z,22.77
2022-09-09T14:25:50.908Z,22.78
2022-09-09T14:28:56.550Z,22.33
2022-09-09T14:32:08.344Z,22.43
2022-09-09T14:35:16.511Z,22.52
2022-09-09T14:38:24.698Z,22.66
2022-09-09T14:41:30.769Z,22.61
2022-09-09T14:44:37.020Z,22.60
2022-09-09T14:47:42.951Z,22.61
2022-09-09T14:50:48.454Z,22.49
2022-09-09T14:54:01.160Z,22.50
2022-09-09T14:57:07.150Z,22.53
2022-09-09T15:00:15.142Z,22.50
2022-09-09T15:03:27.557Z,22.51
2022-09-09T15:06:37.706Z,22.59
2022-09-09T15:09:46.103Z,22.32
2022-09-09T15:12:51.826Z,22.37
2022-09-09T15:15:59.088Z,22.28
2022-09-09T15:19:07.305Z,22.23
2022-09-09T15:22:12.983Z,22.11
2022-09-09T15:25:23.104Z,21.93
2022-09-09T15:28:28.973Z,21.87
2022-09-09T15:31:35.943Z,21.58
2022-09-09T15:34:41.498Z,21.33
2022-09-09T15:37:47.214Z,21.21
2022-09-09T15:41:00.191Z,21.07
2022-09-09T15:44:06.865Z,21.02
2022-09-09T15:47:17.459Z,20.92
2022-09-09T15:50:23.347Z,20.89
2022-09-09T15:53:28.898Z,20.83
2022-09-09T15:56:37.360Z,20.65
2022-09-09T15:59:43.375Z,20.57
2022-09-09T16:02:51.032Z,20.41
2022-09-09T16:05:56.619Z,20.29
2022-09-09T16:09:03.552Z,20.29
2022-09-09T16:12:14.139Z,20.25
2022-09-09T16:15:23.623Z,20.17
2022-09-09T16:18:40.295Z,20.07
2022-09-09T16:21:49.130Z,19.94
2022-09-09T16:24:57.605Z,19.81
2022-09-09T16:28:06.576Z,19.74
2022-09-09T16:31:17.756Z,19.76
2022-09-09T16:34:24.114Z,19.71
2022-09-09T16:37:29.680Z,19.71
2022-09-09T16:40:38.164Z,19.64
2022-09-09T16:43:46.506Z,19.53
2022-09-09T16:47:00.504Z,19.46
2022-09-09T16:50:10.678Z,19.37
2022-09-09T16:53:16.350Z,19.29
2022-09-09T16:56:27.768Z,19.07
2022-09-09T16:59:35.956Z,18.57
2022-09-09T17:02:41.620Z,18.38
2022-09-09T17:05:47.221Z,18.42
2022-09-09T17:08:58.323Z,18.38
2022-09-09T17:12:04.005Z,18.30
2022-09-09T17:15:13.925Z,18.15
2022-09-09T17:18:19.792Z,17.94
2022-09-09T17:21:29.453Z,17.76
2022-09-09T17:24:35.512Z,17.75
2022-09-09T17:27:41.720Z,17.80
2022-09-09T17:30:57.023Z,17.80
2022-09-09T17:34:05.288Z,17.79
2022-09-09T17:37:12.556Z,17.73
2022-09-09T17:40:23.631Z,17.66
2022-09-09T17:43:40.299Z,17.42
2022-09-09T17:46:51.115Z,17.48
2022-09-09T17:50:00.029Z,17.43
2022-09-09T17:53:17.752Z,17.36
2022-09-09T17:56:26.420Z,17.33
2022-09-09T17:59:32.343Z,17.28
2022-09-09T18:02:44.419Z,17.22
2022-09-09T18:05:50.332Z,17.20
2022-09-09T18:08:59.506Z,17.12
2022-09-09T18:12:15.171Z,17.13
2022-09-09T18:15:39.250Z,17.12
2022-09-09T18:18:53.137Z,16.99
2022-09-09T18:22:01.816Z,16.91
2022-09-09T18:25:21.808Z,16.77
2022-09-09T18:28:27.551Z,16.83
2022-09-09T18:31:37.957Z,16.83
2022-09-09T18:34:46.218Z,16.73
2022-09-09T18:37:52.443Z,16.70
2022-09-09T18:40:58.964Z,16.62
2022-09-09T18:44:09.722Z,16.62
2022-09-09T18:47:19.439Z,16.58
2022-09-09T18:50:29.217Z,16.46
2022-09-09T18:53:37.506Z,16.29
2022-09-09T18:56:43.723Z,16.10
2022-09-09T18:59:49.418Z,15.98
2022-09-09T19:02:56.439Z,16.05
2022-09-09T19:06:12.757Z,16.14
2022-09-09T19:09:26.337Z,16.24
2022-09-09T19:12:33.530Z,16.25
2022-09-09T19:15:46.442Z,16.39
2022-09-09T19:18:53.986Z,16.57
2022-09-09T19:22:04.045Z,16.66
2022-09-09T19:25:12.416Z,16.68
2022-09-09T19:28:20.136Z,16.71
2022-09-09T19:31:28.162Z,16.79
2022-09-09T19:34:36.368Z,16.80
2022-09-09T19:37:44.627Z,16.80
2022-09-09T19:40:51.214Z,16.77
2022-09-09T19:44:02.220Z,16.81
2022-09-09T19:47:08.173Z,16.79
2022-09-09T19:50:14.469Z,16.79
2022-09-09T19:53:23.082Z,16.74
2022-09-09T19:56:31.403Z,16.48
2022-09-09T19:59:40.388Z,16.19
2022-09-09T20:03:02.564Z,16.09
2022-09-09T20:06:14.723Z,16.26
2022-09-09T20:09:26.657Z,16.24
2022-09-09T20:12:32.239Z,16.07
2022-09-09T20:15:37.866Z,15.92
2022-09-09T20:18:47.740Z,15.92
2022-09-09T20:21:53.400Z,15.92
2022-09-09T20:25:03.044Z,15.82
2022-09-09T20:28:08.904Z,15.83
2022-09-09T20:31:19.877Z,15.80
2022-09-09T20:34:27.442Z,15.75
2022-09-09T20:37:42.054Z,15.71
2022-09-09T20:40:51.202Z,15.62
2022-09-09T20:44:01.731Z,15.59
2022-09-09T20:47:09.785Z,15.70
2022-09-09T20:50:20.458Z,15.72
2022-09-09T20:53:26.106Z,15.78
2022-09-09T20:56:43.737Z,15.76
2022-09-09T20:59:51.253Z,15.80
2022-09-09T21:03:00.349Z,15.89
2022-09-09T21:06:07.194Z,15.91
2022-09-09T21:09:20.604Z,15.96
2022-09-09T21:12:30.538Z,16.00
2022-09-09T21:15:36.079Z,15.96
2022-09-09T21:18:41.648Z,16.02
2022-09-09T21:21:48.144Z,15.95
2022-09-09T21:24:53.852Z,15.88
2022-09-09T21:28:02.338Z,15.86
2022-09-09T21:31:09.366Z,15.74
2022-09-09T21:34:15.811Z,15.67
2022-09-09T21:37:21.409Z,15.66
2022-09-09T21:40:26.983Z,15.66
2022-09-09T21:43:36.049Z,15.55
2022-09-09T21:46:43.554Z,15.57
2022-09-09T21:49:49.294Z,15.62
2022-09-09T21:52:55.249Z,15.70
2022-09-09T21:56:06.630Z,15.87
2022-09-09T21:59:14.783Z,15.98
2022-09-09T22:02:22.355Z,16.04
2022-09-09T22:05:28.351Z,16.05
2022-09-09T22:08:34.033Z,16.09
2022-09-09T22:11:41.545Z,16.12
2022-09-09T22:14:53.679Z,16.11
2022-09-09T22:17:59.409Z,16.08
2022-09-09T22:21:09.990Z,16.03
2022-09-09T22:24:15.956Z,16.06
2022-09-09T22:27:22.229Z,15.96
2022-09-09T22:30:30.627Z,16.00
2022-09-09T22:33:37.755Z,15.95
2022-09-09T22:36:43.451Z,15.94
2022-09-09T22:39:49.780Z,15.85
2022-09-09T22:42:57.222Z,15.60
2022-09-09T22:46:06.177Z,15.67
2022-09-09T22:49:11.686Z,15.74
2022-09-09T22:52:17.323Z,15.48
2022-09-09T22:55:27.048Z,15.34
2022-09-09T22:58:40.011Z,15.42
2022-09-09T23:01:51.190Z,15.57
2022-09-09T23:04:57.869Z,15.65
2022-09-09T23:08:03.399Z,15.41
2022-09-09T23:11:21.827Z,15.43
2022-09-09T23:14:27.514Z,15.28
2022-09-09T23:17:35.929Z,15.34
2022-09-09T23:20:46.170Z,15.35
2022-09-09T23:23:55.831Z,15.21
2022-09-09T23:27:01.537Z,15.29
2022-09-09T23:30:12.681Z,15.44
2022-09-09T23:33:20.913Z,15.53
2022-09-09T23:36:29.877Z,15.36
2022-09-09T23:39:43.690Z,15.35
2022-09-09T23:42:49.545Z,15.06
2022-09-09T23:46:01.173Z,14.85
2022-09-09T23:49:09.895Z,14.73
2022-09-09T23:52:15.557Z,14.76
2022-09-09T23:55:25.914Z,14.66
2022-09-09T23:58:39.477Z,14.61
